Flood From: 18-02-2018 10:00 Until: 19-02-2018 06:00 warning for: Flood Level: Yellow info button

Although rather usual in this region, locally or potentially dangerous phenomena are expected. (such as local winds, summer thunderstorms, rising streams or high waves) Be aware and pay attention to the latest weather updates, especially if you carry out activities exposed to weather or close to a stream or shoreline. 


Meteo18 Weather Cam more information Meteo18 Weather Cam


Thunder radar more information blitzortung!


Rain radar more information rain snow radar


Visit our other weather sites:

Template documentation
and downloads

And another site



Weather Underground History page Text

Daily Summary for November 2, 2016 Units:  Metric    English   Both
« Previous Day
Next Day »
Daily Weekly Monthly Yearly Custom
  High: Low: Average:
Temperature: -17.8 °C -15.1 °C -13.4 °C
Dew Point: -17.8 °C -15.3 °C -13.8 °C
Humidity: Humidity % 87 % 95 %
Wind Speed: 0 km/h 0 km/h 1.8 km/h
Wind Gust: 0 km/h - -
Wind:- - SSW
Pressure: 0 hPa 34611.7 hPa -
Precipitation: 7.62 mm    
Historical Graphs
 
 
Tabular Data for November 2, 2016
Time Temperature Dew Point Pressure Wind Wind Speed Wind Gust Humidity Rainfall Rate (Hourly)
-17.8 °C -17.8 °C 0 hPa Calm     Humidity % 0 mm
00:02 -14.8 °C -15.1 °C 34611.7 hPa Calm     97 % 0 mm
00:12 -14.9 °C -15.1 °C 34611.7 hPa Calm     97 % 0 mm
00:22 -14.9 °C -15.1 °C 34611.7 hPa Calm     97 % 0 mm
00:27 -14.9 °C -15.1 °C 34625.2 hPa Calm     97 % 0 mm
00:32 -14.9 °C -15.2 °C 34625.2 hPa NNW 2.6 km/h   97 % 0 mm
00:37 -15.1 °C -15.3 °C 34625.2 hPa NNW 2.6 km/h 2.6 km/h 97 % 0 mm
00:42 -15.1 °C -15.3 °C 34611.7 hPa Calm   5.1 km/h 97 % 0 mm
00:47 -15.1 °C -15.3 °C 34611.7 hPa Calm   5.1 km/h 97 % 0 mm
00:52 -15.1 °C -15.3 °C 34625.2 hPa Calm   5.1 km/h 97 % 0 mm
00:57 -15.1 °C -15.3 °C 34625.2 hPa Calm   2.6 km/h 97 % 0 mm
01:02 -15.1 °C -15.3 °C 34625.2 hPa NE 7.7 km/h 7.7 km/h 97 % 0 mm
01:07 -15 °C -15.2 °C 34625.2 hPa Calm   7.7 km/h 97 % 0 mm
01:12 -14.9 °C -15.2 °C 34625.2 hPa NE 2.6 km/h 7.7 km/h 97 % 0 mm
01:17 -14.9 °C -15.1 °C 34625.2 hPa Calm   10.3 km/h 97 % 0 mm
01:27 -14.8 °C -15 °C 34625.2 hPa Calm   10.3 km/h 97 % 0 mm
01:32 -14.7 °C -14.9 °C 34625.2 hPa NE 2.6 km/h 10.3 km/h 97 % 0 mm
01:37 -14.7 °C -14.9 °C 34611.7 hPa NNE 2.6 km/h 10.3 km/h 97 % 0 mm
01:42 -14.7 °C -14.9 °C 34611.7 hPa Calm   10.3 km/h 97 % 0 mm
01:52 -14.6 °C -14.8 °C 34625.2 hPa NNE 2.6 km/h 7.7 km/h 97 % 0 mm
01:57 -14.6 °C -14.8 °C 34625.2 hPa Calm   7.7 km/h 97 % 0 mm
02:02 -14.7 °C -14.9 °C 34625.2 hPa NNW 2.6 km/h 7.7 km/h 97 % 0 mm
02:12 -14.8 °C -15.1 °C 34625.2 hPa NNW 2.6 km/h 7.7 km/h 97 % 7.62 mm
02:17 -14.8 °C -15.1 °C 34625.2 hPa North 5.1 km/h 7.7 km/h 97 % 7.62 mm
02:22 -14.9 °C -15.1 °C 34625.2 hPa NNE 2.6 km/h 7.7 km/h 97 % 7.62 mm
02:27 -14.9 °C -15.1 °C 34625.2 hPa North 2.6 km/h 7.7 km/h 97 % 7.62 mm
02:42 -14.8 °C -15 °C 34625.2 hPa NW 5.1 km/h 7.7 km/h 97 % 7.62 mm
02:47 -14.7 °C -14.9 °C 34625.2 hPa NNW 7.7 km/h 7.7 km/h 97 % 7.62 mm
02:52 -14.7 °C -14.8 °C 34625.2 hPa North 5.1 km/h 10.3 km/h 98 % 7.62 mm
02:57 -14.6 °C -14.7 °C 34635.4 hPa North 2.6 km/h 10.3 km/h 98 % 7.62 mm
03:12 -14.4 °C -14.6 °C 34635.4 hPa NNW 2.6 km/h 10.3 km/h 98 % 0 mm
03:17 -14.4 °C -14.6 °C 34625.2 hPa Calm   7.7 km/h 98 % 0 mm
03:22 -14.5 °C -14.7 °C 34625.2 hPa WNW 2.6 km/h 7.7 km/h 98 % 0 mm
03:27 -14.5 °C -14.7 °C 34625.2 hPa Calm   7.7 km/h 98 % 0 mm
03:37 -14.4 °C -14.6 °C 34625.2 hPa Calm   2.6 km/h 98 % 0 mm
03:42 -14.4 °C -14.6 °C 34625.2 hPa Calm   2.6 km/h 98 % 0 mm
03:47 -14.4 °C -14.6 °C 34625.2 hPa Calm   2.6 km/h 98 % 0 mm
03:57 -14.3 °C -14.5 °C 34625.2 hPa Calm   5.1 km/h 98 % 0 mm
04:02 -14.3 °C -14.4 °C 34625.2 hPa NW 2.6 km/h 5.1 km/h 98 % 0 mm
04:12 -14.2 °C -14.4 °C 34625.2 hPa Calm   5.1 km/h 98 % 0 mm
04:17 -14.2 °C -14.3 °C 34625.2 hPa Calm   5.1 km/h 98 % 0 mm
04:22 -14.1 °C -14.3 °C 34625.2 hPa Calm   5.1 km/h 98 % 0 mm
04:27 -14.1 °C -14.3 °C 34625.2 hPa Calm   2.6 km/h 98 % 0 mm
04:32 -14.1 °C -14.3 °C 34625.2 hPa North 2.6 km/h 2.6 km/h 98 % 0 mm
04:37 -14.1 °C -14.3 °C 34625.2 hPa NW 5.1 km/h 5.1 km/h 98 % 0 mm
04:42 -14.1 °C -14.3 °C 34625.2 hPa Calm   7.7 km/h 98 % 0 mm
04:47 -14.1 °C -14.3 °C 34611.7 hPa Calm   7.7 km/h 98 % 0 mm
04:57 -14.2 °C -14.4 °C 34611.7 hPa Calm   5.1 km/h 98 % 0 mm
05:02 -14.2 °C -14.4 °C 34611.7 hPa Calm   2.6 km/h 98 % 0 mm
05:12 -14.2 °C -14.4 °C 34611.7 hPa Calm   2.6 km/h 98 % 0 mm
05:17 -14.3 °C -14.4 °C 34611.7 hPa Calm   5.1 km/h 98 % 0 mm
05:22 -14.3 °C -14.4 °C 34611.7 hPa Calm   5.1 km/h 98 % 0 mm
05:32 -14.3 °C -14.5 °C 34611.7 hPa Calm   5.1 km/h 98 % 0 mm
05:37 -14.4 °C -14.6 °C 34611.7 hPa Calm   2.6 km/h 98 % 0 mm
05:42 -14.4 °C -14.6 °C 34611.7 hPa North 2.6 km/h 2.6 km/h 98 % 0 mm
05:47 -14.4 °C -14.6 °C 34611.7 hPa Calm   2.6 km/h 98 % 0 mm
05:52 -14.5 °C -14.7 °C 34625.2 hPa Calm   2.6 km/h 98 % 0 mm
05:57 -14.4 °C -14.6 °C 34611.7 hPa Calm   2.6 km/h 98 % 0 mm
06:02 -14.4 °C -14.6 °C 34611.7 hPa Calm   2.6 km/h 98 % 0 mm
06:12 -14.3 °C -14.4 °C 34611.7 hPa Calm     98 % 0 mm
06:17 -14.3 °C -14.4 °C 34611.7 hPa Calm     98 % 0 mm
06:22 -14.3 °C -14.4 °C 34611.7 hPa Calm     98 % 0 mm
06:32 -14.3 °C -14.5 °C 34611.7 hPa Calm     98 % 0 mm
06:37 -14.4 °C -14.6 °C 34625.2 hPa Calm     98 % 0 mm
06:42 -14.4 °C -14.6 °C 34625.2 hPa Calm     98 % 0 mm
06:47 -14.4 °C -14.6 °C 34611.7 hPa Calm     98 % 0 mm
06:52 -14.5 °C -14.7 °C 34611.7 hPa Calm     98 % 0 mm
07:02 -14.6 °C -14.7 °C 34625.2 hPa Calm     98 % 0 mm
07:07 -14.5 °C -14.7 °C 34625.2 hPa Calm     98 % 0 mm
07:12 -14.5 °C -14.7 °C 34625.2 hPa Calm     98 % 0 mm
07:17 -14.4 °C -14.6 °C 34625.2 hPa Calm   2.6 km/h 98 % 0 mm
07:22 -14.5 °C -14.7 °C 34625.2 hPa Calm   2.6 km/h 98 % 0 mm
07:27 -14.4 °C -14.6 °C 34625.2 hPa Calm   2.6 km/h 98 % 0 mm
07:32 -14.5 °C -14.7 °C 34635.4 hPa Calm   5.1 km/h 98 % 0 mm
07:42 -14.5 °C -14.7 °C 34635.4 hPa NNE 2.6 km/h 2.6 km/h 98 % 0 mm
07:47 -14.5 °C -14.7 °C 34635.4 hPa Calm   2.6 km/h 98 % 0 mm
07:52 -14.5 °C -14.7 °C 34635.4 hPa Calm   2.6 km/h 98 % 0 mm
07:57 -14.4 °C -14.6 °C 34635.4 hPa Calm   2.6 km/h 98 % 0 mm
08:02 -14.3 °C -14.5 °C 34645.6 hPa Calm   2.6 km/h 98 % 0 mm
08:07 -14.3 °C -14.4 °C 34645.6 hPa Calm   2.6 km/h 98 % 0 mm
08:12 -14.3 °C -14.4 °C 34645.6 hPa Calm   2.6 km/h 98 % 0 mm
08:17 -14.2 °C -14.4 °C 34645.6 hPa Calm   2.6 km/h 98 % 0 mm
08:22 -14.2 °C -14.4 °C 34645.6 hPa Calm   2.6 km/h 98 % 0 mm
08:27 -14.2 °C -14.3 °C 34645.6 hPa Calm   2.6 km/h 98 % 0 mm
08:32 -14.2 °C -14.3 °C 34645.6 hPa Calm     98 % 0 mm
08:37 -14.1 °C -14.3 °C 34645.6 hPa Calm   2.6 km/h 98 % 0 mm
08:42 -14.1 °C -14.3 °C 34645.6 hPa Calm   2.6 km/h 98 % 0 mm
08:47 -14.1 °C -14.2 °C 34645.6 hPa Calm   2.6 km/h 98 % 0 mm
08:52 -13.9 °C -14.1 °C 34645.6 hPa Calm     98 % 0 mm
08:57 -13.9 °C -14.1 °C 34645.6 hPa Calm     98 % 0 mm
09:02 -13.8 °C -14 °C 34645.6 hPa WNW 2.6 km/h 2.6 km/h 98 % 0 mm
09:07 -13.8 °C -14 °C 34645.6 hPa Calm   2.6 km/h 98 % 0 mm
09:12 -13.8 °C -13.9 °C 34645.6 hPa Calm   2.6 km/h 98 % 0 mm
09:17 -13.7 °C -13.9 °C 34645.6 hPa Calm   2.6 km/h 98 % 0 mm
09:22 -13.7 °C -13.8 °C 34645.6 hPa North 2.6 km/h 2.6 km/h 98 % 0 mm
09:27 -13.7 °C -13.9 °C 34659.1 hPa NNW 5.1 km/h 5.1 km/h 98 % 0 mm
09:32 -13.7 °C -13.8 °C 34645.6 hPa Calm   5.1 km/h 98 % 0 mm
09:42 -13.6 °C -13.8 °C 34645.6 hPa Calm   5.1 km/h 98 % 0 mm
09:47 -13.6 °C -13.7 °C 34659.1 hPa Calm   2.6 km/h 98 % 0 mm
09:52 -13.5 °C -13.7 °C 34659.1 hPa Calm   2.6 km/h 98 % 0 mm
09:57 -13.5 °C -13.7 °C 34645.6 hPa Calm   2.6 km/h 98 % 0 mm
10:02 -13.5 °C -13.7 °C 34659.1 hPa Calm   2.6 km/h 98 % 0 mm
10:07 -13.4 °C -13.6 °C 34659.1 hPa Calm   2.6 km/h 98 % 0 mm
10:12 -13.4 °C -13.6 °C 34659.1 hPa Calm     98 % 0 mm
10:17 -13.3 °C -13.5 °C 34659.1 hPa Calm     98 % 0 mm
10:22 -13.3 °C -13.4 °C 34659.1 hPa Calm   2.6 km/h 98 % 0 mm
10:27 -13.3 °C -13.4 °C 34659.1 hPa Calm   2.6 km/h 98 % 0 mm
10:32 -13.3 °C -13.4 °C 34659.1 hPa Calm   2.6 km/h 98 % 0 mm
10:37 -13.2 °C -13.4 °C 34659.1 hPa Calm   2.6 km/h 98 % 0 mm
10:42 -13.2 °C -13.4 °C 34659.1 hPa Calm   2.6 km/h 98 % 0 mm
10:47 -13.2 °C -13.4 °C 34659.1 hPa Calm   2.6 km/h 98 % 0 mm
10:52 -13.1 °C -13.3 °C 34659.1 hPa Calm   2.6 km/h 98 % 0 mm
10:57 -13.1 °C -13.2 °C 34659.1 hPa Calm   2.6 km/h 98 % 0 mm
11:02 -13.1 °C -13.2 °C 34659.1 hPa Calm   2.6 km/h 98 % 0 mm
11:07 -13 °C -13.2 °C 34659.1 hPa Calm   2.6 km/h 98 % 0 mm
11:12 -13 °C -13.2 °C 34659.1 hPa Calm   2.6 km/h 98 % 0 mm
11:17 -12.9 °C -13.1 °C 34659.1 hPa Calm   2.6 km/h 98 % 0 mm
11:22 -12.9 °C -13.1 °C 34659.1 hPa Calm   2.6 km/h 98 % 0 mm
11:32 -12.9 °C -13.1 °C 34659.1 hPa Calm   2.6 km/h 98 % 0 mm
11:37 -12.8 °C -13 °C 34659.1 hPa Calm   2.6 km/h 98 % 0 mm
11:47 -12.7 °C -12.9 °C 34659.1 hPa Calm   2.6 km/h 98 % 0 mm
11:52 -12.6 °C -12.8 °C 34659.1 hPa Calm   2.6 km/h 98 % 0 mm
12:02 -12.6 °C -12.7 °C 34645.6 hPa Calm     98 % 0 mm
12:07 -12.4 °C -12.6 °C 34645.6 hPa Calm     98 % 0 mm
12:12 -12.6 °C -12.8 °C 34645.6 hPa Calm   5.1 km/h 97 % 0 mm
12:17 -12.5 °C -12.8 °C 34645.6 hPa Calm   5.1 km/h 97 % 0 mm
12:22 -12.5 °C -12.8 °C 34645.6 hPa Calm   5.1 km/h 97 % 0 mm
12:27 -12.6 °C -12.8 °C 34645.6 hPa Calm   2.6 km/h 97 % 0 mm
12:32 -12.5 °C -12.8 °C 34645.6 hPa Calm   2.6 km/h 97 % 0 mm
12:42 -12.4 °C -12.7 °C 34645.6 hPa Calm   2.6 km/h 97 % 0 mm
12:47 -12.4 °C -12.7 °C 34645.6 hPa Calm   5.1 km/h 97 % 0 mm
12:52 -12.3 °C -12.6 °C 34645.6 hPa Calm   5.1 km/h 97 % 0 mm
13:02 -12.2 °C -12.5 °C 34635.4 hPa Calm   5.1 km/h 97 % 0 mm
13:07 -12.2 °C -12.3 °C 34635.4 hPa Calm   5.1 km/h 98 % 0 mm
13:12 -12.1 °C -12.4 °C 34635.4 hPa Calm   5.1 km/h 97 % 0 mm
13:17 -12.1 °C -12.4 °C 34635.4 hPa Calm   2.6 km/h 97 % 0 mm
13:22 -12.1 °C -12.4 °C 34635.4 hPa North 2.6 km/h 5.1 km/h 97 % 0 mm
13:27 -12.1 °C -12.4 °C 34635.4 hPa West 2.6 km/h 10.3 km/h 96 % 0 mm
13:32 -12.1 °C -12.4 °C 34635.4 hPa Calm   10.3 km/h 96 % 0 mm
13:37 -12.1 °C -12.4 °C 34635.4 hPa WNW 2.6 km/h 10.3 km/h 96 % 0 mm
13:42 -11.9 °C -12.4 °C 34635.4 hPa Calm   7.7 km/h 95 % 0 mm
13:47 -11.9 °C -12.3 °C 34635.4 hPa WNW 5.1 km/h 7.7 km/h 95 % 0 mm
13:52 -11.8 °C -12.3 °C 34635.4 hPa Calm   7.7 km/h 94 % 0 mm
13:57 -11.7 °C -12.2 °C 34625.2 hPa Calm   7.7 km/h 94 % 0 mm
14:02 -11.6 °C -12.2 °C 34635.4 hPa Calm   7.7 km/h 93 % 0 mm
14:07 -11.6 °C -12.2 °C 34635.4 hPa Calm   7.7 km/h 93 % 0 mm
14:12 -11.6 °C -12.3 °C 34635.4 hPa North 2.6 km/h 7.7 km/h 92 % 0 mm
14:17 -11.4 °C -12.2 °C 34635.4 hPa WNW 2.6 km/h 7.7 km/h 92 % 0 mm
14:22 -11.4 °C -12.3 °C 34635.4 hPa Calm   7.7 km/h 90 % 0 mm
14:27 -11.4 °C -12.2 °C 34635.4 hPa Calm   5.1 km/h 91 % 0 mm
14:32 -11.3 °C -12.3 °C 34635.4 hPa Calm   5.1 km/h 89 % 0 mm
14:42 -11.4 °C -12.3 °C 34635.4 hPa Calm   7.7 km/h 90 % 0 mm
14:47 -11.4 °C -12.3 °C 34635.4 hPa NE 2.6 km/h 10.3 km/h 90 % 0 mm
14:52 -11.4 °C -12.4 °C 34635.4 hPa North 20.8 km/h 20.8 km/h 89 % 0 mm
14:57 -11.4 °C -12.5 °C 34635.4 hPa NNE 7.7 km/h 25.9 km/h 88 % 0 mm
15:02 -11.4 °C -12.5 °C 34635.4 hPa NNE 10.3 km/h 25.9 km/h 88 % 0 mm
15:07 -11.4 °C -12.4 °C 34635.4 hPa NW 12.9 km/h 25.9 km/h 89 % 0 mm
15:12 -11.4 °C -12.5 °C 34635.4 hPa NNW 7.7 km/h 20.8 km/h 88 % 0 mm
15:17 -11.4 °C -12.4 °C 34635.4 hPa North 10.3 km/h 20.8 km/h 89 % 0 mm
15:22 -11.4 °C -12.4 °C 34635.4 hPa North 7.7 km/h 12.9 km/h 89 % 0 mm
15:27 -11.4 °C -12.4 °C 34635.4 hPa NW 2.6 km/h 15.6 km/h 89 % 0 mm
15:32 -11.4 °C -12.4 °C 34635.4 hPa NNW 5.1 km/h 15.6 km/h 89 % 0 mm
15:37 -11.5 °C -12.4 °C 34635.4 hPa NNW 10.3 km/h 15.6 km/h 89 % 0 mm
15:42 -11.6 °C -12.5 °C 34635.4 hPa North 7.7 km/h 18.2 km/h 89 % 0 mm
15:47 -11.6 °C -12.5 °C 34635.4 hPa NNE 5.1 km/h 18.2 km/h 89 % 0 mm
15:57 -11.7 °C -12.6 °C 34635.4 hPa NNW 5.1 km/h 25.9 km/h 90 % 0 mm
16:02 -11.7 °C -12.5 °C 34635.4 hPa NE 7.7 km/h 25.9 km/h 91 % 0 mm
16:07 -11.7 °C -12.6 °C 34635.4 hPa Calm   20.8 km/h 90 % 0 mm
16:12 -11.7 °C -12.6 °C 34635.4 hPa NNW 10.3 km/h 15.6 km/h 90 % 0 mm
16:17 -11.7 °C -12.6 °C 34635.4 hPa Calm   15.6 km/h 90 % 0 mm
16:22 -11.7 °C -12.6 °C 34635.4 hPa Calm   15.6 km/h 90 % 0 mm
16:27 -11.7 °C -12.6 °C 34635.4 hPa NNE 2.6 km/h 10.3 km/h 90 % 0 mm
16:32 -11.7 °C -12.6 °C 34635.4 hPa Calm   7.7 km/h 90 % 0 mm
16:37 -11.7 °C -12.6 °C 34635.4 hPa Calm   12.9 km/h 90 % 0 mm
16:42 -11.8 °C -12.7 °C 34635.4 hPa NNE 7.7 km/h 12.9 km/h 90 % 0 mm
16:47 -11.8 °C -13 °C 34635.4 hPa Calm   7.7 km/h 87 % 0 mm
16:52 -11.8 °C -12.9 °C 34635.4 hPa NE 5.1 km/h 12.9 km/h 88 % 0 mm
16:57 -11.8 °C -12.9 °C 34635.4 hPa NE 2.6 km/h 15.6 km/h 88 % 0 mm
17:02 -11.9 °C -12.9 °C 34635.4 hPa Calm   15.6 km/h 88 % 0 mm
17:12 -12.1 °C -13 °C 34635.4 hPa NNE 7.7 km/h 10.3 km/h 89 % 0 mm
17:17 -12.1 °C -13.1 °C 34635.4 hPa Calm   12.9 km/h 89 % 0 mm
17:22 -12.2 °C -13.2 °C 34635.4 hPa North 5.1 km/h 12.9 km/h 89 % 0 mm
17:27 -12.3 °C -13.3 °C 34635.4 hPa Calm   12.9 km/h 89 % 0 mm
17:32 -12.4 °C -13.3 °C 34635.4 hPa North 5.1 km/h 12.9 km/h 90 % 0 mm
17:37 -12.5 °C -13.4 °C 34635.4 hPa Calm   7.7 km/h 90 % 0 mm
17:42 -12.6 °C -13.5 °C 34635.4 hPa North 5.1 km/h 7.7 km/h 90 % 0 mm
17:47 -12.7 °C -13.4 °C 34635.4 hPa North 7.7 km/h 7.7 km/h 91 % 0 mm
17:52 -12.7 °C -13.4 °C 34635.4 hPa North 2.6 km/h 7.7 km/h 91 % 0 mm
17:57 -12.7 °C -13.5 °C 34635.4 hPa Calm   7.7 km/h 91 % 0 mm
18:02 -12.7 °C -13.4 °C 34635.4 hPa Calm   7.7 km/h 92 % 0 mm
18:07 -12.7 °C -13.4 °C 34635.4 hPa NNW 2.6 km/h 5.1 km/h 92 % 0 mm
18:17 -12.8 °C -13.5 °C 34635.4 hPa Calm   5.1 km/h 92 % 0 mm
18:27 -12.9 °C -13.5 °C 34645.6 hPa WNW 2.6 km/h 2.6 km/h 93 % 0 mm
18:32 -12.9 °C -13.6 °C 34645.6 hPa NW 2.6 km/h 2.6 km/h 93 % 0 mm
18:42 -12.9 °C -13.6 °C 34645.6 hPa Calm   5.1 km/h 93 % 0 mm
18:47 -13 °C -13.6 °C 34645.6 hPa Calm   2.6 km/h 93 % 0 mm
18:57 -13 °C -13.5 °C 34645.6 hPa Calm     94 % 0 mm
19:02 -13.1 °C -13.6 °C 34645.6 hPa Calm     94 % 0 mm
19:07 -13.3 °C -13.9 °C 34645.6 hPa WNW 5.1 km/h   93 % 0 mm
19:12 -13.4 °C -13.9 °C 34645.6 hPa WNW 2.6 km/h 5.1 km/h 94 % 0 mm
19:17 -13.3 °C -13.8 °C 34645.6 hPa Calm   5.1 km/h 95 % 0 mm
19:22 -13.3 °C -13.7 °C 34645.6 hPa Calm   5.1 km/h 95 % 0 mm
19:32 -13.3 °C -13.6 °C 34645.6 hPa NW 2.6 km/h 5.1 km/h 96 % 0 mm
19:37 -13.2 °C -13.5 °C 34645.6 hPa NW 2.6 km/h 5.1 km/h 96 % 0 mm
19:42 -13.1 °C -13.6 °C 34645.6 hPa Calm   5.1 km/h 95 % 0 mm
19:47 -13.2 °C -13.6 °C 34645.6 hPa Calm   2.6 km/h 95 % 0 mm
19:52 -13.1 °C -13.6 °C 34645.6 hPa Calm   5.1 km/h 95 % 0 mm
19:57 -13.1 °C -13.5 °C 34645.6 hPa Calm   5.1 km/h 95 % 0 mm
20:02 -13.1 °C -13.6 °C 34645.6 hPa Calm   5.1 km/h 95 % 0 mm
20:12 -13.1 °C -13.6 °C 34645.6 hPa Calm   5.1 km/h 95 % 0 mm
20:22 -13.1 °C -13.6 °C 34645.6 hPa Calm   5.1 km/h 95 % 0 mm
20:32 -13.1 °C -13.6 °C 34645.6 hPa Calm   5.1 km/h 95 % 0 mm
20:37 -13.1 °C -13.6 °C 34645.6 hPa NW 2.6 km/h 5.1 km/h 95 % 0 mm
20:47 -13.1 °C -13.6 °C 34645.6 hPa Calm   7.7 km/h 95 % 0 mm
20:52 -13.1 °C -13.6 °C 34645.6 hPa North 2.6 km/h 7.7 km/h 94 % 0 mm
20:57 -13.1 °C -13.6 °C 34645.6 hPa NE 5.1 km/h 10.3 km/h 94 % 0 mm
21:02 -12.9 °C -13.6 °C 34635.4 hPa ENE 10.3 km/h 15.6 km/h 92 % 0 mm
21:07 -12.9 °C -13.7 °C 34635.4 hPa NE 12.9 km/h 20.8 km/h 91 % 0 mm
21:12 -12.9 °C -13.8 °C 34645.6 hPa NNE 5.1 km/h 20.8 km/h 90 % 0 mm
21:17 -13 °C -13.8 °C 34645.6 hPa WNW 2.6 km/h 18.2 km/h 90 % 0 mm
21:22 -13.2 °C -14 °C 34645.6 hPa NW 2.6 km/h 18.2 km/h 90 % 0 mm
21:32 -13.3 °C -14.2 °C 34645.6 hPa NW 2.6 km/h 7.7 km/h 90 % 0 mm
21:37 -13.4 °C -14.3 °C 34645.6 hPa Calm   10.3 km/h 89 % 0 mm
21:42 -13.4 °C -14.4 °C 34645.6 hPa NW 2.6 km/h 10.3 km/h 89 % 0 mm
21:47 -13.6 °C -14.5 °C 34645.6 hPa NW 2.6 km/h 7.7 km/h 89 % 0 mm
21:57 -13.7 °C -14.6 °C 34645.6 hPa Calm   7.7 km/h 90 % 0 mm
22:02 -13.8 °C -14.6 °C 34645.6 hPa Calm   7.7 km/h 90 % 0 mm
22:07 -13.8 °C -14.6 °C 34645.6 hPa North 2.6 km/h 7.7 km/h 91 % 0 mm
22:12 -13.9 °C -14.7 °C 34645.6 hPa NNW 5.1 km/h 10.3 km/h 91 % 0 mm
22:22 -14.1 °C -14.7 °C 34645.6 hPa NNE 5.1 km/h 12.9 km/h 92 % 0 mm
22:27 -14.1 °C -14.7 °C 34645.6 hPa NNE 2.6 km/h 12.9 km/h 93 % 0 mm
22:32 -14.1 °C -14.7 °C 34659.1 hPa North 2.6 km/h 20.8 km/h 93 % 0 mm
22:37 -14.1 °C -14.7 °C 34645.6 hPa NNE 2.6 km/h 20.8 km/h 93 % 0 mm
22:42 -14.2 °C -14.8 °C 34659.1 hPa NNE 2.6 km/h 20.8 km/h 93 % 0 mm
22:47 -14.2 °C -14.7 °C 34659.1 hPa NNE 5.1 km/h 15.6 km/h 94 % 0 mm
22:57 -14.3 °C -14.9 °C 34659.1 hPa Calm   12.9 km/h 93 % 0 mm
23:07 -14.4 °C -14.9 °C 34659.1 hPa North 5.1 km/h 10.3 km/h 94 % 0 mm
23:12 -14.4 °C -14.9 °C 34659.1 hPa NNW 2.6 km/h 10.3 km/h 94 % 0 mm
23:22 -14.4 °C -14.9 °C 34659.1 hPa North 2.6 km/h 12.9 km/h 94 % 0 mm
23:27 -14.5 °C -15 °C 34659.1 hPa NNW 2.6 km/h 12.9 km/h 94 % 0 mm
23:32 -14.6 °C -15.1 °C 34659.1 hPa North 5.1 km/h 12.9 km/h 94 % 0 mm
23:37 -14.6 °C -15.1 °C 34659.1 hPa NNE 5.1 km/h 10.3 km/h 94 % 0 mm
23:42 -14.6 °C -15.1 °C 34659.1 hPa North 2.6 km/h 10.3 km/h 94 % 0 mm
23:47 -14.6 °C -15.1 °C 34659.1 hPa NNW 2.6 km/h 10.3 km/h 94 % 0 mm
23:52 -14.6 °C -15.1 °C 34659.1 hPa North 5.1 km/h 7.7 km/h 94 % 0 mm
23:57 -14.6 °C -15.2 °C 34659.1 hPa NW 2.6 km/h 7.7 km/h 93 % 0 mm
Meteo18
Compliments of Weather Underground - 4 mb

Script developed by  Jim McMurry - jmcmurry@mwt.net Adapted for the template by  Wim van der Kuil - Leuven-Template.eu

You find our weather info also at:

European Weather Network

Weather Underground

Equipment we use:

Weather-station
Davis Vue

Weather-program
Meteobridge

Weather-server
Raspberry PI 2 B+

Provider
1 and 1

Davis Vue

Meteobridge

Raspberry PI 2 B+

1 and 1